createdAt,value
2023-11-19T00:00:31.733Z,93195.28
2023-11-19T00:02:59.805Z,93201.19
2023-11-19T00:05:28.903Z,93202.63
2023-11-19T00:07:56.734Z,93187.00
2023-11-19T00:10:24.858Z,93203.41
2023-11-19T00:12:52.425Z,93200.94
2023-11-19T00:15:20.613Z,93184.56
2023-11-19T00:17:50.273Z,93201.72
2023-11-19T00:20:20.346Z,93207.22
2023-11-19T00:22:50.568Z,93206.34
2023-11-19T00:25:19.744Z,93210.16
2023-11-19T00:27:47.489Z,93216.31
2023-11-19T00:30:16.037Z,93228.84
2023-11-19T00:32:44.183Z,93212.47
2023-11-19T00:35:11.892Z,93218.03
2023-11-19T00:37:41.233Z,93219.00
2023-11-19T00:40:12.359Z,93213.91
2023-11-19T00:42:40.860Z,93227.69
2023-11-19T00:45:13.936Z,93221.22
2023-11-19T00:47:42.515Z,93225.16
2023-11-19T00:50:14.521Z,93230.00
2023-11-19T00:52:42.792Z,93230.56
2023-11-19T00:55:10.665Z,93232.22
2023-11-19T00:57:38.393Z,93233.44
2023-11-19T01:00:20.658Z,93236.66
2023-11-19T01:02:51.959Z,93230.97
2023-11-19T01:05:24.249Z,93229.94
2023-11-19T01:07:53.721Z,93227.22
2023-11-19T01:10:21.940Z,93228.09
2023-11-19T01:12:49.617Z,93215.81
2023-11-19T01:15:20.154Z,93231.25
2023-11-19T01:20:18.824Z,93235.47
2023-11-19T01:22:46.377Z,93235.00
2023-11-19T01:25:15.259Z,93242.41
2023-11-19T01:27:43.510Z,93244.66
2023-11-19T01:30:14.573Z,93229.94
2023-11-19T01:32:42.900Z,93239.06
2023-11-19T01:35:10.899Z,93234.81
2023-11-19T01:37:38.630Z,93236.97
2023-11-19T01:40:07.932Z,93236.56
2023-11-19T01:42:39.961Z,93248.00
2023-11-19T01:45:11.006Z,93247.59
2023-11-19T01:47:39.313Z,93254.81
2023-11-19T01:50:09.632Z,93262.28
2023-11-19T01:52:39.159Z,93264.84
2023-11-19T01:55:10.108Z,93259.69
2023-11-19T01:57:39.753Z,93248.94
2023-11-19T02:00:13.322Z,93256.97
2023-11-19T02:02:42.635Z,93250.91
2023-11-19T02:05:14.111Z,93255.37
2023-11-19T02:07:41.865Z,93261.66
2023-11-19T02:10:14.462Z,93265.69
2023-11-19T02:12:46.076Z,93257.78
2023-11-19T02:15:13.753Z,93260.63
2023-11-19T02:17:41.415Z,93251.47
2023-11-19T02:20:13.770Z,93250.47
2023-11-19T02:22:42.313Z,93243.97
2023-11-19T02:25:18.606Z,93254.09
2023-11-19T02:28:02.192Z,93253.22
2023-11-19T02:30:30.373Z,93268.56
2023-11-19T02:33:04.754Z,93279.31
2023-11-19T02:35:33.448Z,93275.66
2023-11-19T02:38:02.164Z,93268.34
2023-11-19T02:40:30.349Z,93287.22
2023-11-19T02:42:59.192Z,93281.50
2023-11-19T02:45:28.123Z,93255.63
2023-11-19T02:47:58.881Z,93259.41
2023-11-19T02:50:26.957Z,93239.16
2023-11-19T02:52:59.675Z,93248.37
2023-11-19T02:55:29.656Z,93242.75
2023-11-19T02:58:00.849Z,93236.09
2023-11-19T03:00:33.626Z,93249.63
2023-11-19T03:03:06.822Z,93254.44
2023-11-19T03:05:34.782Z,93249.97
2023-11-19T03:08:02.659Z,93248.00
2023-11-19T03:10:30.660Z,93259.81
2023-11-19T03:12:58.759Z,93263.84
2023-11-19T03:15:27.204Z,93272.84
2023-11-19T03:17:55.493Z,93263.37
2023-11-19T03:20:25.095Z,93266.44
2023-11-19T03:22:54.135Z,93266.44
2023-11-19T03:25:21.777Z,93270.81
2023-11-19T03:27:49.647Z,93278.59
2023-11-19T03:30:18.987Z,93270.37
2023-11-19T03:32:46.824Z,93272.84
2023-11-19T03:35:14.754Z,93278.81
2023-11-19T03:37:42.258Z,93275.38
2023-11-19T03:40:10.703Z,93274.34
2023-11-19T03:42:38.562Z,93268.50
2023-11-19T03:45:09.755Z,93265.75
2023-11-19T03:47:37.370Z,93272.94
2023-11-19T03:50:05.731Z,93273.31
2023-11-19T03:52:44.079Z,93264.66
2023-11-19T03:55:13.825Z,93275.38
2023-11-19T03:57:41.472Z,93275.56
2023-11-19T04:00:11.510Z,93273.56
2023-11-19T04:02:40.368Z,93287.34
2023-11-19T04:05:08.958Z,93296.25
2023-11-19T04:07:36.724Z,93290.38
2023-11-19T04:10:04.833Z,93294.66
2023-11-19T04:12:32.891Z,93286.09
2023-11-19T04:15:01.526Z,93276.41
2023-11-19T04:17:29.742Z,93276.78
2023-11-19T04:19:57.750Z,93279.22
2023-11-19T04:22:25.408Z,93286.69
2023-11-19T04:24:53.186Z,93286.25
2023-11-19T04:27:21.280Z,93279.66
2023-11-19T04:29:48.779Z,93294.53
2023-11-19T04:32:16.471Z,93279.94
2023-11-19T04:34:44.421Z,93285.69
2023-11-19T04:37:13.987Z,93296.84
2023-11-19T04:39:41.962Z,93278.87
2023-11-19T04:42:09.889Z,93294.44
2023-11-19T04:44:37.443Z,93297.72
2023-11-19T04:47:05.229Z,93285.28
2023-11-19T04:49:33.264Z,93291.84
2023-11-19T04:52:00.929Z,93298.34
2023-11-19T04:54:28.546Z,93302.44
2023-11-19T04:56:56.482Z,93291.34
2023-11-19T04:59:24.109Z,93296.41
2023-11-19T05:01:51.925Z,93291.34
2023-11-19T05:04:20.499Z,93302.31
2023-11-19T05:06:48.297Z,93301.94
2023-11-19T05:09:15.694Z,93297.22
2023-11-19T05:14:15.268Z,93301.28
2023-11-19T05:16:44.301Z,93314.28
2023-11-19T05:19:11.875Z,93316.69
2023-11-19T05:21:39.407Z,93311.63
2023-11-19T05:24:07.719Z,93316.50
2023-11-19T05:26:35.314Z,93316.31
2023-11-19T05:29:03.020Z,93322.78
2023-11-19T05:31:32.310Z,93322.03
2023-11-19T05:34:01.255Z,93304.75
2023-11-19T05:36:30.243Z,93318.97
2023-11-19T05:38:57.959Z,93307.69
2023-11-19T05:41:25.710Z,93311.09
2023-11-19T05:43:53.436Z,93318.63
2023-11-19T05:46:21.807Z,93318.91
2023-11-19T05:48:49.919Z,93311.09
2023-11-19T05:51:17.780Z,93307.44
2023-11-19T05:53:49.328Z,93308.41
2023-11-19T05:56:17.451Z,93311.69
2023-11-19T05:58:46.307Z,93336.25
2023-11-19T06:01:14.241Z,93322.44
2023-11-19T06:03:44.266Z,93321.66
2023-11-19T06:06:12.644Z,93337.81
2023-11-19T06:08:41.012Z,93336.62
2023-11-19T06:11:09.569Z,93348.41
2023-11-19T06:13:37.911Z,93350.44
2023-11-19T06:16:07.159Z,93348.25
2023-11-19T06:18:35.497Z,93346.91
2023-11-19T06:21:03.128Z,93352.16
2023-11-19T06:23:30.551Z,93346.72
2023-11-19T06:25:58.427Z,93339.59
2023-11-19T06:28:26.831Z,93347.13
2023-11-19T06:30:54.463Z,93333.69
2023-11-19T06:33:22.421Z,93346.09
2023-11-19T06:35:50.696Z,93336.16
2023-11-19T06:38:19.164Z,93358.16
2023-11-19T06:40:49.663Z,93357.50
2023-11-19T06:43:19.272Z,93345.19
2023-11-19T06:45:47.647Z,93342.19
2023-11-19T06:48:15.902Z,93351.47
2023-11-19T06:50:43.437Z,93349.50
2023-11-19T06:53:11.846Z,93343.28
2023-11-19T06:55:39.477Z,93346.16
2023-11-19T06:58:08.341Z,93361.84
2023-11-19T07:00:37.368Z,93361.97
2023-11-19T07:03:05.517Z,93372.31
2023-11-19T07:05:33.311Z,93368.50
2023-11-19T07:08:02.435Z,93370.37
2023-11-19T07:10:31.482Z,93376.56
2023-11-19T07:12:59.057Z,93377.97
2023-11-19T07:15:27.120Z,93392.94
2023-11-19T07:20:28.126Z,93389.62
2023-11-19T07:22:58.737Z,93392.44
2023-11-19T07:25:26.491Z,93402.88
2023-11-19T07:27:54.257Z,93402.41
2023-11-19T07:30:22.773Z,93405.12
2023-11-19T07:32:50.565Z,93394.91
2023-11-19T07:35:18.737Z,93407.22
2023-11-19T07:37:49.154Z,93406.31
2023-11-19T07:40:16.686Z,93414.56
2023-11-19T07:42:44.179Z,93423.13
2023-11-19T07:45:12.351Z,93428.31
2023-11-19T07:47:40.045Z,93420.81
2023-11-19T07:50:08.209Z,93426.84
2023-11-19T07:52:36.123Z,93411.41
2023-11-19T07:55:03.789Z,93410.88
2023-11-19T07:57:32.259Z,93412.16
2023-11-19T08:00:02.124Z,93398.63
2023-11-19T08:02:30.091Z,93402.56
2023-11-19T08:04:58.645Z,93411.06
2023-11-19T08:07:26.346Z,93409.91
2023-11-19T08:09:53.996Z,93405.78
2023-11-19T08:12:22.255Z,93409.88
2023-11-19T08:14:50.696Z,93408.03
2023-11-19T08:17:18.777Z,93428.78
2023-11-19T08:19:46.804Z,93415.97
2023-11-19T08:22:14.396Z,93419.97
2023-11-19T08:24:41.892Z,93418.16
2023-11-19T08:27:09.829Z,93428.28
2023-11-19T08:29:37.526Z,93420.91
2023-11-19T08:32:05.717Z,93420.28
2023-11-19T08:34:33.733Z,93425.56
2023-11-19T08:37:01.603Z,93420.88
2023-11-19T08:39:29.229Z,93426.56
2023-11-19T08:41:57.141Z,93415.50
2023-11-19T08:44:24.921Z,93418.69
2023-11-19T08:46:52.741Z,93433.22
2023-11-19T08:49:20.660Z,93448.09
2023-11-19T08:51:48.233Z,93448.34
2023-11-19T08:54:15.767Z,93440.31
2023-11-19T08:56:43.782Z,93440.06
2023-11-19T08:59:11.416Z,93438.63
2023-11-19T09:01:39.073Z,93415.59
2023-11-19T09:04:08.053Z,93433.16
2023-11-19T09:06:37.231Z,93450.50
2023-11-19T09:09:06.880Z,93439.47
2023-11-19T09:11:34.909Z,93440.91
2023-11-19T09:14:02.515Z,93427.09
2023-11-19T09:16:30.192Z,93422.44
2023-11-19T09:18:59.263Z,93423.87
2023-11-19T09:21:32.607Z,93428.72
2023-11-19T09:24:00.437Z,93407.00
2023-11-19T09:26:27.992Z,93400.81
2023-11-19T09:28:55.664Z,93422.94
2023-11-19T09:31:23.771Z,93426.06
2023-11-19T09:33:51.326Z,93429.75
2023-11-19T09:36:20.448Z,93436.28
2023-11-19T09:38:48.592Z,93447.22
2023-11-19T09:41:17.623Z,93439.97
2023-11-19T09:43:46.316Z,93441.38
2023-11-19T09:46:17.963Z,93433.91
2023-11-19T09:48:46.583Z,93424.16
2023-11-19T09:51:14.578Z,93423.31
2023-11-19T09:53:42.569Z,93431.25
2023-11-19T09:56:12.043Z,93424.00
2023-11-19T09:58:41.416Z,93416.22
2023-11-19T10:03:45.282Z,93396.50
2023-11-19T10:06:13.938Z,93400.13
2023-11-19T10:08:44.571Z,93387.16
2023-11-19T10:11:14.552Z,93388.44
2023-11-19T10:13:44.058Z,93385.66
2023-11-19T10:16:14.445Z,93378.91
2023-11-19T10:18:53.958Z,93374.56
2023-11-19T10:21:21.715Z,93385.91
2023-11-19T10:24:01.495Z,93385.22
2023-11-19T10:26:30.417Z,93386.50
2023-11-19T10:28:58.538Z,93392.50
2023-11-19T10:31:28.032Z,93410.19
2023-11-19T10:33:56.389Z,93392.34
2023-11-19T10:36:27.150Z,93399.78
2023-11-19T10:38:58.482Z,93387.38
2023-11-19T10:41:32.221Z,93386.41
2023-11-19T10:44:01.125Z,93378.63
2023-11-19T10:46:40.403Z,93360.97
2023-11-19T10:49:09.089Z,93362.28
2023-11-19T10:51:37.339Z,93362.16
2023-11-19T10:54:08.026Z,93364.66
2023-11-19T10:56:36.063Z,93367.19
2023-11-19T10:59:23.052Z,93373.56
2023-11-19T11:01:56.267Z,93358.41
2023-11-19T11:04:27.044Z,93379.56
2023-11-19T11:06:56.137Z,93370.78
2023-11-19T11:09:24.795Z,93371.03
2023-11-19T11:11:53.978Z,93369.69
2023-11-19T11:14:23.826Z,93368.66
2023-11-19T11:16:53.104Z,93373.62
2023-11-19T11:19:21.312Z,93366.09
2023-11-19T11:21:56.033Z,93344.16
2023-11-19T11:24:49.136Z,93339.97
2023-11-19T11:27:59.682Z,93342.53
2023-11-19T11:30:35.909Z,93336.25
2023-11-19T11:33:25.487Z,93340.25
2023-11-19T11:35:56.281Z,93336.47
2023-11-19T11:38:25.331Z,93336.94
2023-11-19T11:41:28.834Z,93338.44
2023-11-19T11:43:59.059Z,93348.53
2023-11-19T11:46:39.274Z,93342.47
2023-11-19T11:49:08.496Z,93332.72
2023-11-19T11:51:46.520Z,93328.41
2023-11-19T11:54:21.082Z,93321.03
2023-11-19T11:57:15.580Z,93320.00
2023-11-19T11:59:43.630Z,93327.31
2023-11-19T12:02:13.996Z,93317.13
2023-11-19T12:04:42.640Z,93315.63
2023-11-19T12:07:15.388Z,93319.84
2023-11-19T12:09:44.194Z,93335.22
2023-11-19T12:12:22.530Z,93338.06
2023-11-19T12:14:59.785Z,93333.69
2023-11-19T12:17:38.414Z,93334.81
2023-11-19T12:20:10.699Z,93323.91
2023-11-19T12:22:43.318Z,93316.00
2023-11-19T12:25:15.540Z,93311.19
2023-11-19T12:27:47.726Z,93311.91
2023-11-19T12:30:27.522Z,93298.12
2023-11-19T12:32:56.137Z,93292.19
2023-11-19T12:35:25.179Z,93288.69
2023-11-19T12:37:54.218Z,93293.50
2023-11-19T12:40:22.900Z,93292.13
2023-11-19T12:42:55.560Z,93289.13
2023-11-19T12:45:25.427Z,93283.06
2023-11-19T12:48:06.768Z,93283.41
2023-11-19T12:50:54.973Z,93282.56
2023-11-19T12:53:24.268Z,93274.50
2023-11-19T12:55:53.236Z,93269.59
2023-11-19T12:58:50.698Z,93276.41
2023-11-19T13:01:20.794Z,93273.69
2023-11-19T13:03:50.477Z,93278.09
2023-11-19T13:06:22.648Z,93282.25
2023-11-19T13:08:56.185Z,93280.22
2023-11-19T13:11:35.870Z,93265.19
2023-11-19T13:14:10.477Z,93270.94
2023-11-19T13:16:40.436Z,93257.66
2023-11-19T13:19:10.199Z,93257.47
2023-11-19T13:21:39.393Z,93250.72
2023-11-19T13:24:10.327Z,93255.25
2023-11-19T13:26:39.410Z,93246.88
2023-11-19T13:29:06.988Z,93246.56
2023-11-19T13:31:34.606Z,93241.28
2023-11-19T13:34:02.777Z,93233.37
2023-11-19T13:36:30.597Z,93227.22
2023-11-19T13:39:00.866Z,93234.97
2023-11-19T13:41:29.264Z,93231.84
2023-11-19T13:43:56.873Z,93240.16
2023-11-19T13:46:24.628Z,93245.31
2023-11-19T13:48:52.647Z,93241.37
2023-11-19T13:51:20.742Z,93241.22
2023-11-19T13:56:19.435Z,93257.41
2023-11-19T13:58:47.165Z,93266.16
2023-11-19T14:01:16.007Z,93266.84
2023-11-19T14:03:44.080Z,93270.66
2023-11-19T14:06:11.803Z,93271.66
2023-11-19T14:08:39.367Z,93277.87
2023-11-19T14:11:08.222Z,93285.97
2023-11-19T14:13:36.124Z,93281.97
2023-11-19T14:16:04.583Z,93282.34
2023-11-19T14:18:36.477Z,93293.34
2023-11-19T14:21:04.999Z,93301.09
2023-11-19T14:23:32.964Z,93306.88
2023-11-19T14:26:00.507Z,93308.53
2023-11-19T14:28:28.360Z,93309.84
2023-11-19T14:30:58.609Z,93303.16
2023-11-19T14:33:26.319Z,93303.91
2023-11-19T14:35:53.986Z,93319.84
2023-11-19T14:38:21.975Z,93322.97
2023-11-19T14:40:49.680Z,93321.63
2023-11-19T14:43:17.350Z,93314.66
2023-11-19T14:45:49.990Z,93323.69
2023-11-19T14:48:21.597Z,93317.56
2023-11-19T14:50:49.685Z,93307.16
2023-11-19T14:53:17.366Z,93307.94
2023-11-19T14:55:45.043Z,93308.31
2023-11-19T14:58:17.260Z,93304.34
2023-11-19T15:00:46.541Z,93315.16
2023-11-19T15:03:17.701Z,93316.00
2023-11-19T15:05:49.399Z,93318.88
2023-11-19T15:08:17.613Z,93314.91
2023-11-19T15:10:46.436Z,93311.28
2023-11-19T15:13:14.015Z,93312.75
2023-11-19T15:15:42.089Z,93321.12
2023-11-19T15:18:11.486Z,93319.19
2023-11-19T15:20:39.200Z,93327.56
2023-11-19T15:23:09.426Z,93328.75
2023-11-19T15:25:38.077Z,93320.19
2023-11-19T15:28:06.217Z,93331.19
2023-11-19T15:30:34.614Z,93338.00
2023-11-19T15:33:02.474Z,93336.16
2023-11-19T15:35:30.075Z,93346.53
2023-11-19T15:37:58.222Z,93354.94
2023-11-19T15:40:26.123Z,93351.12
2023-11-19T15:42:56.096Z,93343.72
2023-11-19T15:45:24.077Z,93329.59
2023-11-19T15:47:51.856Z,93332.09
2023-11-19T15:50:19.620Z,93319.47
2023-11-19T15:52:49.300Z,93320.59
2023-11-19T15:55:17.397Z,93319.09
2023-11-19T15:57:45.034Z,93313.59
2023-11-19T16:00:13.499Z,93319.06
2023-11-19T16:02:41.965Z,93332.59
2023-11-19T16:05:15.333Z,93327.44
2023-11-19T16:07:43.793Z,93315.13
2023-11-19T16:10:14.310Z,93307.50
2023-11-19T16:12:42.074Z,93315.75
2023-11-19T16:15:10.367Z,93324.91
2023-11-19T16:17:40.185Z,93338.53
2023-11-19T16:20:08.701Z,93328.00
2023-11-19T16:22:36.705Z,93337.56
2023-11-19T16:25:04.629Z,93346.09
2023-11-19T16:27:32.178Z,93345.16
2023-11-19T16:30:00.962Z,93340.94
2023-11-19T16:32:29.069Z,93338.50
2023-11-19T16:34:57.262Z,93337.22
2023-11-19T16:37:25.988Z,93339.53
2023-11-19T16:39:54.044Z,93345.69
2023-11-19T16:42:22.040Z,93334.78
2023-11-19T16:44:51.086Z,93321.41
2023-11-19T16:47:18.776Z,93315.25
2023-11-19T16:49:46.365Z,93323.47
2023-11-19T16:52:15.158Z,93322.22
2023-11-19T16:54:43.137Z,93318.03
2023-11-19T16:57:11.093Z,93326.88
2023-11-19T16:59:39.126Z,93328.38
2023-11-19T17:02:06.836Z,93338.03
2023-11-19T17:04:34.523Z,93340.00
2023-11-19T17:07:02.507Z,93349.16
2023-11-19T17:09:30.058Z,93360.47
2023-11-19T17:11:57.711Z,93361.41
2023-11-19T17:16:56.380Z,93373.16
2023-11-19T17:19:23.886Z,93364.91
2023-11-19T17:21:51.895Z,93363.13
2023-11-19T17:24:19.536Z,93373.66
2023-11-19T17:26:47.701Z,93358.72
2023-11-19T17:29:18.885Z,93357.19
2023-11-19T17:31:46.945Z,93350.59
2023-11-19T17:34:15.578Z,93355.47
2023-11-19T17:36:43.409Z,93349.91
2023-11-19T17:39:12.452Z,93356.88
2023-11-19T17:41:40.820Z,93349.75
2023-11-19T17:44:08.871Z,93345.88
2023-11-19T17:46:37.099Z,93347.34
2023-11-19T17:49:05.480Z,93340.22
2023-11-19T17:51:33.510Z,93345.06
2023-11-19T17:54:01.403Z,93343.16
2023-11-19T17:56:29.681Z,93344.25
2023-11-19T17:58:58.537Z,93349.00
2023-11-19T18:01:27.081Z,93345.44
2023-11-19T18:03:55.336Z,93351.28
2023-11-19T18:06:22.907Z,93340.84
2023-11-19T18:08:51.297Z,93330.72
2023-11-19T18:11:21.969Z,93333.38
2023-11-19T18:13:50.957Z,93328.47
2023-11-19T18:16:22.520Z,93328.09
2023-11-19T18:18:50.435Z,93325.66
2023-11-19T18:21:19.294Z,93333.06
2023-11-19T18:23:47.376Z,93327.03
2023-11-19T18:26:15.025Z,93328.38
2023-11-19T18:28:43.187Z,93338.16
2023-11-19T18:31:11.502Z,93339.25
2023-11-19T18:33:39.637Z,93340.66
2023-11-19T18:36:08.460Z,93344.50
2023-11-19T18:38:43.846Z,93343.34
2023-11-19T18:41:14.382Z,93343.97
2023-11-19T18:43:42.705Z,93326.50
2023-11-19T18:46:10.880Z,93330.22
2023-11-19T18:48:38.705Z,93335.53
2023-11-19T18:51:06.879Z,93342.66
2023-11-19T18:53:35.812Z,93346.53
2023-11-19T18:56:04.696Z,93353.97
2023-11-19T18:58:32.750Z,93349.50
2023-11-19T19:01:00.333Z,93340.34
2023-11-19T19:03:32.407Z,93353.75
2023-11-19T19:06:00.837Z,93353.31
2023-11-19T19:08:28.854Z,93345.75
2023-11-19T19:10:56.744Z,93356.44
2023-11-19T19:13:24.840Z,93360.63
2023-11-19T19:15:53.198Z,93358.47
2023-11-19T19:18:20.959Z,93346.00
2023-11-19T19:20:49.224Z,93373.53
2023-11-19T19:23:16.895Z,93370.31
2023-11-19T19:25:44.546Z,93367.31
2023-11-19T19:30:43.897Z,93370.81
2023-11-19T19:33:13.149Z,93367.75
2023-11-19T19:35:41.333Z,93366.56
2023-11-19T19:38:10.797Z,93357.06
2023-11-19T19:40:40.043Z,93361.50
2023-11-19T19:43:08.047Z,93364.31
2023-11-19T19:45:36.979Z,93378.44
2023-11-19T19:48:05.154Z,93367.66
2023-11-19T19:50:32.984Z,93369.84
2023-11-19T19:53:00.673Z,93370.75
2023-11-19T19:55:28.685Z,93362.16
2023-11-19T19:57:56.381Z,93355.66
2023-11-19T20:00:24.499Z,93362.16
2023-11-19T20:02:52.713Z,93368.50
2023-11-19T20:05:21.183Z,93364.00
2023-11-19T20:07:49.672Z,93358.41
2023-11-19T20:10:18.070Z,93350.34
2023-11-19T20:12:45.650Z,93351.41
2023-11-19T20:15:13.402Z,93335.78
2023-11-19T20:17:42.382Z,93333.69
2023-11-19T20:20:12.668Z,93333.31
2023-11-19T20:22:41.242Z,93330.09
2023-11-19T20:25:11.430Z,93330.97
2023-11-19T20:27:39.172Z,93326.50
2023-11-19T20:30:07.554Z,93318.47
2023-11-19T20:32:37.948Z,93318.72
2023-11-19T20:35:06.741Z,93318.66
2023-11-19T20:37:38.469Z,93307.47
2023-11-19T20:40:08.568Z,93309.16
2023-11-19T20:42:38.434Z,93293.56
2023-11-19T20:45:10.416Z,93299.03
2023-11-19T20:47:39.325Z,93307.75
2023-11-19T20:50:09.226Z,93301.50
2023-11-19T20:52:37.395Z,93293.75
2023-11-19T20:55:05.657Z,93298.38
2023-11-19T20:57:33.763Z,93295.38
2023-11-19T21:00:01.487Z,93299.94
2023-11-19T21:02:29.958Z,93282.84
2023-11-19T21:04:57.956Z,93281.06
2023-11-19T21:07:26.901Z,93289.84
2023-11-19T21:09:54.589Z,93280.63
2023-11-19T21:12:22.549Z,93279.84
2023-11-19T21:14:50.180Z,93282.19
2023-11-19T21:17:21.143Z,93290.78
2023-11-19T21:19:49.445Z,93277.25
2023-11-19T21:22:18.460Z,93290.41
2023-11-19T21:24:46.167Z,93283.28
2023-11-19T21:27:15.868Z,93292.63
2023-11-19T21:29:43.583Z,93292.63
2023-11-19T21:32:12.284Z,93299.56
2023-11-19T21:34:41.922Z,93308.78
2023-11-19T21:37:10.447Z,93300.97
2023-11-19T21:39:38.208Z,93295.34
2023-11-19T21:42:07.210Z,93297.28
2023-11-19T21:44:34.850Z,93286.37
2023-11-19T21:47:02.439Z,93277.47
2023-11-19T21:49:30.590Z,93264.75
2023-11-19T21:51:58.123Z,93272.16
2023-11-19T21:54:26.598Z,93279.88
2023-11-19T21:56:54.604Z,93281.66
2023-11-19T21:59:22.275Z,93279.41
2023-11-19T22:01:50.026Z,93283.97
2023-11-19T22:04:18.137Z,93265.19
2023-11-19T22:06:45.740Z,93261.25
2023-11-19T22:09:15.301Z,93258.13
2023-11-19T22:11:43.243Z,93254.87
2023-11-19T22:14:10.847Z,93261.31
2023-11-19T22:16:38.574Z,93256.94
2023-11-19T22:19:06.796Z,93262.19
2023-11-19T22:21:34.423Z,93265.91
2023-11-19T22:24:03.041Z,93254.16
2023-11-19T22:26:31.016Z,93257.47
2023-11-19T22:28:59.296Z,93262.63
2023-11-19T22:31:27.804Z,93263.97
2023-11-19T22:33:55.880Z,93265.09
2023-11-19T22:36:24.059Z,93263.69
2023-11-19T22:38:51.808Z,93258.28
2023-11-19T22:41:20.170Z,93249.66
2023-11-19T22:43:47.782Z,93240.78
2023-11-19T22:46:16.321Z,93255.78
2023-11-19T22:48:44.434Z,93252.62
2023-11-19T22:51:12.110Z,93256.00
2023-11-19T22:53:39.685Z,93258.78
2023-11-19T22:56:08.253Z,93257.78
2023-11-19T22:58:35.942Z,93260.00
2023-11-19T23:01:04.167Z,93265.25
2023-11-19T23:03:33.443Z,93266.66
2023-11-19T23:06:01.056Z,93254.75
2023-11-19T23:08:28.649Z,93270.84
2023-11-19T23:10:56.493Z,93265.16
2023-11-19T23:13:25.406Z,93280.69
2023-11-19T23:15:53.093Z,93287.47
2023-11-19T23:18:21.706Z,93275.09
2023-11-19T23:20:49.388Z,93274.38
2023-11-19T23:23:16.815Z,93264.47
2023-11-19T23:25:44.615Z,93271.22
2023-11-19T23:28:12.735Z,93282.38
2023-11-19T23:30:40.298Z,93280.00
2023-11-19T23:33:09.170Z,93283.19
2023-11-19T23:35:36.754Z,93284.53
2023-11-19T23:38:04.756Z,93283.03
2023-11-19T23:40:32.855Z,93286.50
2023-11-19T23:43:00.473Z,93265.44
2023-11-19T23:45:28.089Z,93262.75
2023-11-19T23:47:56.232Z,93275.34
2023-11-19T23:50:23.744Z,93259.41
2023-11-19T23:52:51.268Z,93270.91
2023-11-19T23:55:19.228Z,93247.13
2023-11-19T23:57:46.902Z,93263.91
